map of SPU home
SPU - Airport
Location
City:  Split, Croatia
Name:Kastel
ICAO:LDSP
IATA:SPU

Details
Type:Airport (Aerodrome, Airfield)
Use:Public/Civil, International (customs port of entry)
Latitude:4332'20"N (43.538944)
Longitude:1617'53"E (16.297964)
Datum:WGS 1984
Elevation:79 ft (24 m)
Variation:3.82E (WMM2015 magnetic declination)
0.11 annual change
Runways:1
Longest:8366 × 148 ft (2550 × 45 m), paved

Time
Time Zone:UTC+1 (DST+2)
Local Time:

Weather
METAR:LDSP 210630Z VRB01KT CAVOK 16/14 Q1021 NOSIG
TAF:LDSP 210525Z 2106/2206 VRB02KT CAVOK TX22/2112Z TN14/2106Z
BECMG 2110/2112 23008KT
BECMG 2115/2117 32005KT

Related Locations
Nearby:
Farthest:CHT: 11802 mi / 18993 km
Waitangi [Tuuta], CIT, NZ

Find:

   beyond  
but within

Other Information
Maps:
NOTAMs:
Links:
Sources:

  
flag of Croatia   

Sectional Chart

Flight Planning
at skyvector.com

Satellite Image

Google Maps Satellite view

 

Copyright © 2004-2017 Karl L. Swartz. All rights reserved.
The Great Circle Mapper name and logo are trademarks of the Great Circle Mapper.
All other trademarks mentioned herein belong to their respective owners.
Please see credits for attibutions and further copyright information.

  Follow gcmap on Facebook Follow gcmap on Twitter Follow gcmap on Google+ GCmap on LinkedIn

hCard Microformat

Geo Microformat